createdAt,value
2023-03-31T00:00:27.866Z,8.70
2023-03-31T00:02:59.071Z,8.70
2023-03-31T00:05:29.874Z,8.75
2023-03-31T00:08:02.233Z,8.74
2023-03-31T00:10:34.259Z,8.74
2023-03-31T00:13:07.260Z,8.76
2023-03-31T00:15:37.596Z,8.80
2023-03-31T00:18:08.408Z,8.76
2023-03-31T00:20:38.456Z,8.79
2023-03-31T00:23:11.374Z,8.81
2023-03-31T00:25:43.960Z,8.83
2023-03-31T00:28:16.553Z,8.88
2023-03-31T00:30:47.554Z,8.90
2023-03-31T00:33:17.771Z,8.87
2023-03-31T00:35:48.199Z,8.88
2023-03-31T00:38:18.269Z,8.97
2023-03-31T00:40:53.840Z,9.15
2023-03-31T00:43:35.126Z,9.13
2023-03-31T00:46:13.899Z,9.18
2023-03-31T00:48:49.545Z,9.38
2023-03-31T00:51:21.636Z,9.53
2023-03-31T00:53:58.013Z,9.57
2023-03-31T00:56:30.842Z,9.68
2023-03-31T00:59:07.916Z,9.76
2023-03-31T01:01:39.852Z,9.87
2023-03-31T01:04:10.845Z,9.89
2023-03-31T01:06:47.510Z,9.89
2023-03-31T01:09:20.730Z,9.93
2023-03-31T01:11:51.606Z,9.98
2023-03-31T01:14:24.533Z,9.97
2023-03-31T01:16:54.912Z,9.98
2023-03-31T01:19:36.699Z,10.00
2023-03-31T01:22:49.951Z,10.06
2023-03-31T01:25:51.574Z,10.22
2023-03-31T01:28:31.160Z,10.28
2023-03-31T01:31:41.112Z,10.10
2023-03-31T01:34:31.545Z,10.06
2023-03-31T01:37:28.930Z,10.10
2023-03-31T01:40:26.045Z,10.00
2023-03-31T01:43:01.490Z,10.01
2023-03-31T01:45:43.402Z,10.06
2023-03-31T01:48:18.906Z,10.13
2023-03-31T01:50:52.320Z,10.18
2023-03-31T01:53:30.361Z,10.16
2023-03-31T01:56:08.884Z,10.16
2023-03-31T01:58:42.450Z,10.15
2023-03-31T02:01:21.222Z,10.00
2023-03-31T02:03:57.006Z,9.90
2023-03-31T02:06:32.121Z,9.84
2023-03-31T02:09:06.897Z,9.72
2023-03-31T02:11:42.160Z,9.70
2023-03-31T02:14:18.965Z,9.74
2023-03-31T02:16:52.602Z,9.70
2023-03-31T02:19:24.805Z,9.63
2023-03-31T02:21:57.155Z,9.69
2023-03-31T02:24:31.162Z,9.57
2023-03-31T02:27:09.396Z,9.53
2023-03-31T02:29:40.153Z,9.53
2023-03-31T02:32:19.331Z,9.54
2023-03-31T02:34:49.810Z,9.41
2023-03-31T02:37:20.764Z,9.40
2023-03-31T02:39:55.615Z,9.39
2023-03-31T02:42:28.727Z,9.34
2023-03-31T02:45:05.245Z,9.20
2023-03-31T02:47:36.498Z,9.18
2023-03-31T02:50:08.176Z,9.25
2023-03-31T02:52:53.562Z,9.25
2023-03-31T02:55:38.155Z,9.38
2023-03-31T02:58:52.702Z,9.17
2023-03-31T03:01:45.218Z,9.13
2023-03-31T03:04:34.303Z,9.17
2023-03-31T03:07:13.864Z,9.15
2023-03-31T03:09:52.557Z,9.15
2023-03-31T03:12:28.354Z,9.28
2023-03-31T03:15:06.405Z,9.37
2023-03-31T03:17:42.139Z,9.33
2023-03-31T03:20:14.203Z,9.25
2023-03-31T03:22:44.266Z,9.21
2023-03-31T03:25:17.390Z,9.10
2023-03-31T03:27:47.761Z,8.99
2023-03-31T03:30:20.697Z,8.93
2023-03-31T03:32:51.028Z,8.76
2023-03-31T03:35:21.689Z,8.68
2023-03-31T03:37:52.134Z,8.65
2023-03-31T03:40:22.537Z,8.63
2023-03-31T03:42:52.699Z,8.67
2023-03-31T03:45:25.870Z,8.73
2023-03-31T03:47:56.111Z,8.73
2023-03-31T03:50:26.432Z,8.68
2023-03-31T03:52:56.925Z,8.72
2023-03-31T03:55:29.183Z,8.76
2023-03-31T03:57:59.118Z,8.87
2023-03-31T04:00:32.063Z,8.87
2023-03-31T04:03:02.370Z,8.87
2023-03-31T04:05:32.385Z,8.81
2023-03-31T04:08:03.118Z,8.79
2023-03-31T04:10:33.385Z,8.75
2023-03-31T04:13:03.924Z,8.63
2023-03-31T04:15:36.835Z,8.40
2023-03-31T04:18:11.675Z,8.32
2023-03-31T04:20:42.748Z,8.17
2023-03-31T04:23:15.309Z,8.15
2023-03-31T04:25:46.818Z,8.09
2023-03-31T04:28:17.350Z,8.04
2023-03-31T04:30:50.099Z,8.10
2023-03-31T04:33:20.387Z,8.16
2023-03-31T04:35:53.447Z,8.25
2023-03-31T04:38:27.515Z,8.39
2023-03-31T04:40:58.486Z,8.43
2023-03-31T04:43:28.682Z,8.47
2023-03-31T04:46:01.833Z,8.48
2023-03-31T04:48:31.941Z,8.55
2023-03-31T04:51:02.262Z,8.67
2023-03-31T04:53:32.436Z,8.74
2023-03-31T04:56:02.913Z,8.76
2023-03-31T04:58:32.836Z,8.89
2023-03-31T05:01:06.610Z,8.90
2023-03-31T05:03:37.418Z,8.93
2023-03-31T05:06:09.183Z,8.99
2023-03-31T05:08:39.601Z,9.02
2023-03-31T05:11:09.658Z,9.04
2023-03-31T05:13:39.632Z,8.98
2023-03-31T05:16:15.062Z,8.93
2023-03-31T05:18:45.183Z,8.84
2023-03-31T05:21:17.762Z,8.73
2023-03-31T05:23:48.889Z,8.63
2023-03-31T05:26:19.163Z,8.60
2023-03-31T05:28:51.824Z,8.58
2023-03-31T05:31:25.475Z,8.61
2023-03-31T05:33:55.482Z,8.60
2023-03-31T05:36:27.405Z,8.76
2023-03-31T05:38:58.655Z,8.81
2023-03-31T05:41:28.974Z,8.97
2023-03-31T05:43:58.945Z,8.97
2023-03-31T05:46:31.611Z,8.95
2023-03-31T05:49:03.223Z,8.90
2023-03-31T05:51:33.261Z,8.89
2023-03-31T05:54:03.456Z,8.82
2023-03-31T05:56:33.815Z,8.86
2023-03-31T05:59:05.327Z,8.92
2023-03-31T06:01:38.142Z,8.82
2023-03-31T06:07:17.970Z,8.96
2023-03-31T06:09:48.563Z,9.01
2023-03-31T06:12:19.161Z,9.06
2023-03-31T06:14:49.124Z,9.09
2023-03-31T06:17:22.115Z,9.16
2023-03-31T06:19:52.083Z,9.27
2023-03-31T06:22:22.064Z,9.34
2023-03-31T06:24:52.050Z,9.32
2023-03-31T06:27:22.166Z,9.39
2023-03-31T06:29:52.499Z,9.42
2023-03-31T06:32:25.035Z,9.36
2023-03-31T06:34:55.141Z,9.30
2023-03-31T06:37:25.125Z,9.29
2023-03-31T06:39:55.905Z,9.23
2023-03-31T06:42:26.274Z,9.23
2023-03-31T06:44:56.361Z,9.20
2023-03-31T06:47:30.293Z,9.11
2023-03-31T06:50:00.241Z,9.09
2023-03-31T06:52:30.309Z,9.07
2023-03-31T06:55:01.886Z,9.09
2023-03-31T06:57:37.378Z,9.14
2023-03-31T07:00:08.943Z,9.27
2023-03-31T07:02:41.658Z,9.32
2023-03-31T07:05:13.009Z,9.36
2023-03-31T07:07:46.200Z,9.37
2023-03-31T07:10:16.844Z,9.26
2023-03-31T07:12:48.351Z,9.26
2023-03-31T07:15:21.085Z,9.21
2023-03-31T07:18:03.567Z,9.17
2023-03-31T07:20:35.040Z,9.17
2023-03-31T07:23:08.874Z,9.17
2023-03-31T07:25:40.883Z,9.24
2023-03-31T07:28:11.438Z,9.37
2023-03-31T07:30:45.307Z,9.46
2023-03-31T07:33:18.277Z,9.48
2023-03-31T07:35:59.958Z,9.45
2023-03-31T07:38:40.446Z,9.39
2023-03-31T07:41:13.760Z,9.38
2023-03-31T07:43:46.383Z,9.24
2023-03-31T07:46:21.969Z,9.16
2023-03-31T07:48:55.579Z,9.22
2023-03-31T07:51:29.131Z,9.36
2023-03-31T07:53:59.081Z,9.48
2023-03-31T07:56:32.031Z,9.60
2023-03-31T07:59:03.259Z,9.53
2023-03-31T08:01:34.510Z,9.67
2023-03-31T08:04:08.578Z,9.73
2023-03-31T08:06:40.327Z,10.14
2023-03-31T08:09:11.291Z,11.05
2023-03-31T08:11:41.309Z,11.85
2023-03-31T08:14:12.090Z,11.84
2023-03-31T08:16:42.298Z,11.73
2023-03-31T08:19:15.433Z,12.52
2023-03-31T08:21:45.634Z,14.88
2023-03-31T08:24:16.063Z,16.69
2023-03-31T08:26:46.522Z,17.91
2023-03-31T08:29:16.682Z,17.35
2023-03-31T08:31:46.881Z,17.86
2023-03-31T08:34:20.490Z,18.17
2023-03-31T08:36:50.974Z,19.08
2023-03-31T08:39:21.370Z,19.67
2023-03-31T08:42:00.217Z,19.66
2023-03-31T08:44:37.544Z,20.01
2023-03-31T08:47:13.155Z,20.61
2023-03-31T08:49:51.245Z,19.65
2023-03-31T08:52:28.679Z,20.16
2023-03-31T08:55:00.310Z,21.14
2023-03-31T08:57:34.981Z,19.55
2023-03-31T09:00:07.406Z,19.80
2023-03-31T09:02:49.388Z,19.57
2023-03-31T09:05:59.657Z,20.16
2023-03-31T09:08:36.570Z,18.88
2023-03-31T09:11:17.734Z,19.00
2023-03-31T09:14:05.097Z,19.19
2023-03-31T09:16:38.979Z,19.07
2023-03-31T09:19:17.132Z,20.18
2023-03-31T09:21:52.591Z,19.83
2023-03-31T09:24:29.806Z,19.69
2023-03-31T09:27:04.436Z,19.78
2023-03-31T09:29:44.338Z,18.49
2023-03-31T09:32:19.523Z,19.73
2023-03-31T09:34:53.380Z,20.03
2023-03-31T09:37:28.370Z,19.17
2023-03-31T09:39:58.622Z,18.46
2023-03-31T09:42:29.107Z,17.72
2023-03-31T09:44:59.204Z,16.68
2023-03-31T09:47:35.824Z,16.90
2023-03-31T09:50:06.737Z,16.95
2023-03-31T09:52:42.722Z,15.32
2023-03-31T09:55:38.307Z,14.23
2023-03-31T09:58:10.397Z,14.93
2023-03-31T10:00:45.242Z,15.11
2023-03-31T10:03:18.276Z,16.49
2023-03-31T10:05:54.398Z,17.28
2023-03-31T10:08:31.912Z,17.68
2023-03-31T10:11:11.912Z,17.49
2023-03-31T10:13:48.770Z,17.79
2023-03-31T10:16:31.212Z,17.68
2023-03-31T10:19:16.223Z,17.74
2023-03-31T10:21:49.361Z,17.12
2023-03-31T10:24:24.347Z,18.08
2023-03-31T10:26:57.430Z,18.98
2023-03-31T10:29:34.271Z,19.46
2023-03-31T10:32:11.862Z,18.95
2023-03-31T10:34:45.926Z,17.21
2023-03-31T10:37:20.659Z,17.01
2023-03-31T10:40:00.809Z,17.72
2023-03-31T10:42:31.649Z,17.78
2023-03-31T10:45:26.356Z,17.92
2023-03-31T10:48:04.459Z,17.27
2023-03-31T10:50:36.542Z,17.20
2023-03-31T10:53:09.057Z,16.78
2023-03-31T10:55:48.739Z,17.24
2023-03-31T10:58:34.862Z,17.91
2023-03-31T11:01:17.607Z,19.08
2023-03-31T11:04:09.621Z,20.52
2023-03-31T11:06:54.694Z,19.13
2023-03-31T11:09:41.221Z,18.29
2023-03-31T11:12:21.042Z,17.57
2023-03-31T11:15:02.737Z,16.99
2023-03-31T11:17:44.997Z,16.52
2023-03-31T11:20:24.216Z,16.15
2023-03-31T11:23:02.117Z,15.38
2023-03-31T11:25:42.276Z,13.54
2023-03-31T11:28:30.639Z,11.72
2023-03-31T11:31:12.624Z,9.44
2023-03-31T11:33:59.970Z,8.33
2023-03-31T11:36:49.684Z,7.95
2023-03-31T11:39:36.181Z,7.83
2023-03-31T11:42:11.499Z,7.82
2023-03-31T11:44:48.136Z,7.72
2023-03-31T11:47:22.712Z,7.73
2023-03-31T11:49:59.310Z,7.83
2023-03-31T11:52:33.229Z,7.92
2023-03-31T11:55:09.268Z,7.97
2023-03-31T11:57:44.669Z,8.16
2023-03-31T12:00:23.149Z,8.56
2023-03-31T12:02:59.000Z,9.07
2023-03-31T12:05:32.064Z,9.68
2023-03-31T12:08:08.544Z,10.30
2023-03-31T12:10:41.373Z,11.77
2023-03-31T12:13:34.071Z,13.01
2023-03-31T12:16:12.786Z,13.27
2023-03-31T12:18:49.953Z,14.14
2023-03-31T12:21:20.766Z,14.50
2023-03-31T12:23:54.349Z,14.04
2023-03-31T12:26:36.817Z,14.61
2023-03-31T12:29:25.303Z,14.81
2023-03-31T12:32:01.723Z,16.14
2023-03-31T12:34:33.138Z,16.53
2023-03-31T12:37:28.846Z,15.61
2023-03-31T12:40:13.800Z,15.04
2023-03-31T12:43:03.905Z,13.31
2023-03-31T12:45:37.226Z,12.94
2023-03-31T12:48:34.299Z,12.48
2023-03-31T12:51:24.234Z,12.84
2023-03-31T12:54:10.860Z,13.21
2023-03-31T12:57:17.552Z,13.19
2023-03-31T12:59:48.596Z,12.75
2023-03-31T13:02:26.782Z,13.09
2023-03-31T13:04:59.700Z,13.33
2023-03-31T13:07:44.392Z,13.76
2023-03-31T13:10:31.289Z,13.85
2023-03-31T13:13:07.696Z,13.95
2023-03-31T13:15:38.104Z,14.38
2023-03-31T13:18:10.652Z,14.12
2023-03-31T13:20:43.966Z,14.09
2023-03-31T13:23:23.015Z,13.58
2023-03-31T13:25:54.749Z,13.45
2023-03-31T13:28:47.086Z,13.14
2023-03-31T13:31:18.085Z,12.86
2023-03-31T13:33:57.917Z,11.89
2023-03-31T13:37:01.972Z,11.07
2023-03-31T13:40:08.375Z,10.66
2023-03-31T13:43:11.050Z,10.32
2023-03-31T13:45:57.546Z,10.28
2023-03-31T13:49:03.117Z,10.02
2023-03-31T13:51:44.381Z,9.63
2023-03-31T13:54:59.231Z,8.96
2023-03-31T13:58:03.285Z,8.81
2023-03-31T14:00:43.190Z,8.46
2023-03-31T14:03:20.580Z,8.47
2023-03-31T14:05:53.783Z,8.45
2023-03-31T14:08:32.793Z,8.37
2023-03-31T14:11:18.906Z,8.44
2023-03-31T14:14:04.616Z,8.35
2023-03-31T14:16:37.826Z,9.71
2023-03-31T14:19:18.971Z,12.01
2023-03-31T14:21:53.398Z,13.29
2023-03-31T14:24:29.399Z,15.48
2023-03-31T14:27:03.942Z,15.04
2023-03-31T14:29:41.228Z,12.43
2023-03-31T14:32:16.486Z,12.16
2023-03-31T14:34:59.083Z,12.04
2023-03-31T14:37:31.079Z,11.80
2023-03-31T14:40:01.751Z,11.88
2023-03-31T14:42:35.286Z,11.97
2023-03-31T14:45:11.611Z,12.08
2023-03-31T14:47:42.315Z,12.24
2023-03-31T14:50:16.473Z,12.79
2023-03-31T14:52:49.805Z,13.14
2023-03-31T14:55:22.569Z,13.32
2023-03-31T14:57:56.649Z,13.02
2023-03-31T15:00:32.207Z,12.68
2023-03-31T15:03:03.993Z,13.44
2023-03-31T15:05:36.039Z,15.37
2023-03-31T15:08:08.294Z,17.32
2023-03-31T15:10:40.381Z,17.07
2023-03-31T15:13:11.788Z,16.86
2023-03-31T15:15:46.414Z,16.62
2023-03-31T15:18:17.898Z,17.53
2023-03-31T15:20:49.238Z,15.80
2023-03-31T15:23:25.273Z,15.75
2023-03-31T15:25:59.217Z,15.91
2023-03-31T15:28:31.738Z,15.77
2023-03-31T15:31:10.573Z,16.31
2023-03-31T15:33:43.005Z,15.28
2023-03-31T15:36:14.160Z,13.91
2023-03-31T15:38:45.244Z,13.61
2023-03-31T15:41:17.090Z,13.44
2023-03-31T15:43:51.333Z,13.14
2023-03-31T15:46:28.543Z,12.90
2023-03-31T15:48:59.504Z,12.72
2023-03-31T15:51:32.848Z,12.41
2023-03-31T15:54:05.715Z,12.31
2023-03-31T15:56:38.492Z,12.11
2023-03-31T15:59:09.265Z,11.99
2023-03-31T16:01:46.156Z,12.10
2023-03-31T16:04:17.676Z,11.88
2023-03-31T16:06:49.385Z,11.91
2023-03-31T16:09:22.059Z,11.82
2023-03-31T16:11:54.187Z,11.85
2023-03-31T16:14:26.740Z,11.67
2023-03-31T16:17:05.317Z,11.36
2023-03-31T16:19:44.341Z,11.43
2023-03-31T16:22:20.537Z,11.33
2023-03-31T16:24:51.669Z,11.33
2023-03-31T16:27:22.149Z,11.09
2023-03-31T16:29:52.264Z,11.07
2023-03-31T16:32:24.903Z,11.03
2023-03-31T16:34:56.868Z,10.88
2023-03-31T16:37:28.469Z,10.79
2023-03-31T16:39:59.394Z,10.74
2023-03-31T16:42:30.364Z,10.54
2023-03-31T16:45:13.807Z,10.55
2023-03-31T16:47:47.223Z,10.52
2023-03-31T16:50:17.504Z,10.47
2023-03-31T16:52:47.930Z,10.26
2023-03-31T16:55:18.151Z,10.15
2023-03-31T16:57:48.929Z,10.14
2023-03-31T17:00:20.731Z,10.02
2023-03-31T17:02:53.870Z,10.04
2023-03-31T17:05:24.086Z,10.03
2023-03-31T17:07:54.194Z,9.94
2023-03-31T17:10:24.526Z,9.88
2023-03-31T17:12:55.148Z,9.79
2023-03-31T17:15:25.559Z,9.67
2023-03-31T17:17:59.186Z,9.66
2023-03-31T17:20:29.507Z,9.53
2023-03-31T17:22:59.759Z,9.47
2023-03-31T17:25:30.455Z,9.45
2023-03-31T17:28:01.737Z,9.37
2023-03-31T17:30:32.023Z,9.21
2023-03-31T17:33:05.666Z,9.16
2023-03-31T17:35:36.448Z,9.07
2023-03-31T17:38:07.368Z,9.08
2023-03-31T17:40:38.404Z,9.02
2023-03-31T17:43:09.105Z,8.99
2023-03-31T17:45:39.520Z,9.04
2023-03-31T17:48:13.105Z,9.04
2023-03-31T17:50:43.215Z,9.06
2023-03-31T17:53:13.548Z,9.00
2023-03-31T17:55:44.189Z,9.04
2023-03-31T17:58:19.294Z,9.03
2023-03-31T18:00:49.913Z,9.05
2023-03-31T18:03:22.608Z,9.07
2023-03-31T18:05:53.089Z,9.00
2023-03-31T18:08:23.645Z,9.00
2023-03-31T18:10:54.171Z,8.97
2023-03-31T18:13:24.701Z,9.04
2023-03-31T18:15:55.881Z,9.11
2023-03-31T18:18:29.735Z,9.08
2023-03-31T18:21:00.523Z,9.06
2023-03-31T18:23:30.948Z,8.91
2023-03-31T18:26:01.162Z,8.86
2023-03-31T18:28:31.760Z,8.80
2023-03-31T18:31:06.397Z,8.76
2023-03-31T18:33:40.579Z,8.65
2023-03-31T18:36:13.478Z,8.69
2023-03-31T18:38:44.008Z,8.46
2023-03-31T18:41:14.874Z,8.46
2023-03-31T18:43:45.339Z,8.48
2023-03-31T18:46:15.760Z,8.37
2023-03-31T18:48:49.564Z,8.29
2023-03-31T18:51:20.427Z,8.16
2023-03-31T18:53:50.972Z,8.10
2023-03-31T18:56:23.435Z,8.07
2023-03-31T18:58:54.149Z,8.13
2023-03-31T19:01:24.494Z,8.14
2023-03-31T19:03:57.702Z,8.21
2023-03-31T19:06:27.818Z,8.29
2023-03-31T19:08:58.914Z,8.29
2023-03-31T19:11:29.406Z,8.35
2023-03-31T19:13:59.586Z,8.31
2023-03-31T19:16:30.220Z,8.34
2023-03-31T19:19:04.454Z,8.36
2023-03-31T19:21:36.664Z,8.36
2023-03-31T19:24:10.163Z,8.41
2023-03-31T19:26:40.579Z,8.46
2023-03-31T19:29:10.674Z,8.42
2023-03-31T19:31:42.002Z,8.41
2023-03-31T19:34:16.942Z,8.43
2023-03-31T19:36:47.424Z,8.40
2023-03-31T19:39:18.625Z,8.37
2023-03-31T19:41:49.242Z,8.39
2023-03-31T19:44:19.302Z,8.36
2023-03-31T19:46:49.728Z,8.32
2023-03-31T19:49:22.924Z,8.23
2023-03-31T19:51:53.547Z,8.24
2023-03-31T19:54:23.581Z,8.20
2023-03-31T19:56:53.720Z,8.25
2023-03-31T19:59:23.690Z,8.27
2023-03-31T20:01:54.195Z,8.26
2023-03-31T20:04:27.145Z,8.21
2023-03-31T20:06:58.512Z,8.22
2023-03-31T20:09:29.484Z,8.25
2023-03-31T20:11:59.690Z,8.21
2023-03-31T20:14:30.882Z,8.22
2023-03-31T20:17:03.627Z,8.23
2023-03-31T20:19:36.740Z,8.20
2023-03-31T20:22:07.321Z,8.25
2023-03-31T20:24:38.708Z,8.27
2023-03-31T20:27:09.200Z,8.39
2023-03-31T20:29:39.353Z,8.49
2023-03-31T20:32:10.034Z,8.33
2023-03-31T20:34:42.915Z,8.26
2023-03-31T20:37:13.369Z,8.10
2023-03-31T20:39:44.850Z,7.96
2023-03-31T20:42:14.935Z,7.92
2023-03-31T20:44:45.205Z,7.88
2023-03-31T20:47:15.979Z,7.81
2023-03-31T20:49:49.230Z,7.75
2023-03-31T20:52:19.446Z,7.74
2023-03-31T20:54:49.541Z,7.73
2023-03-31T20:57:19.942Z,7.85
2023-03-31T20:59:50.093Z,7.89
2023-03-31T21:02:20.171Z,7.92
2023-03-31T21:04:53.322Z,7.95
2023-03-31T21:07:23.480Z,7.99
2023-03-31T21:09:53.613Z,8.00
2023-03-31T21:12:23.954Z,8.02
2023-03-31T21:14:54.487Z,8.06
2023-03-31T21:17:24.874Z,8.09
2023-03-31T21:19:57.746Z,8.07
2023-03-31T21:22:27.853Z,8.19
2023-03-31T21:25:01.286Z,8.19
2023-03-31T21:27:32.267Z,8.17
2023-03-31T21:30:02.930Z,8.14
2023-03-31T21:32:33.246Z,8.14
2023-03-31T21:35:06.611Z,8.19
2023-03-31T21:37:37.408Z,8.27
2023-03-31T21:40:08.694Z,8.33
2023-03-31T21:42:39.150Z,8.35
2023-03-31T21:45:11.437Z,8.41
2023-03-31T21:47:41.732Z,8.47
2023-03-31T21:50:15.130Z,8.48
2023-03-31T21:52:45.166Z,8.51
2023-03-31T21:55:15.384Z,8.52
2023-03-31T21:57:45.619Z,8.56
2023-03-31T22:00:17.024Z,8.36
2023-03-31T22:02:47.490Z,8.42
2023-03-31T22:05:20.358Z,8.38
2023-03-31T22:07:51.198Z,8.16
2023-03-31T22:10:21.562Z,8.00
2023-03-31T22:12:51.850Z,7.77
2023-03-31T22:15:23.035Z,7.58
2023-03-31T22:17:53.198Z,7.52
2023-03-31T22:20:26.769Z,7.47
2023-03-31T22:22:57.920Z,7.52
2023-03-31T22:25:28.406Z,7.49
2023-03-31T22:27:58.701Z,7.47
2023-03-31T22:30:28.944Z,7.47
2023-03-31T22:32:59.095Z,7.44
2023-03-31T22:35:32.565Z,7.43
2023-03-31T22:38:03.410Z,7.36
2023-03-31T22:40:34.195Z,7.31
2023-03-31T22:43:05.259Z,7.22
2023-03-31T22:45:35.335Z,7.15
2023-03-31T22:48:05.703Z,7.12
2023-03-31T22:50:38.777Z,6.98
2023-03-31T22:53:10.369Z,6.94
2023-03-31T22:55:44.309Z,7.01
2023-03-31T22:58:25.852Z,7.05
2023-03-31T23:00:59.941Z,7.07
2023-03-31T23:03:31.116Z,7.03
2023-03-31T23:06:05.490Z,6.99
2023-03-31T23:08:37.229Z,7.02
2023-03-31T23:11:09.187Z,6.97
2023-03-31T23:13:39.439Z,7.03
2023-03-31T23:16:11.778Z,7.05
2023-03-31T23:18:46.224Z,6.93
2023-03-31T23:21:23.038Z,6.89
2023-03-31T23:23:53.958Z,6.92
2023-03-31T23:26:26.519Z,6.95
2023-03-31T23:28:57.651Z,6.96
2023-03-31T23:31:30.578Z,7.04
2023-03-31T23:34:01.494Z,7.01
2023-03-31T23:36:35.015Z,6.99
2023-03-31T23:39:06.858Z,7.03
2023-03-31T23:41:37.100Z,6.98
2023-03-31T23:44:07.718Z,6.92
2023-03-31T23:46:39.865Z,6.90
2023-03-31T23:49:09.907Z,6.78
2023-03-31T23:51:43.009Z,6.84
2023-03-31T23:54:13.363Z,6.86
2023-03-31T23:56:43.707Z,6.85
2023-03-31T23:59:14.077Z,6.88
